createdAt,value
2018-02-14T00:00:51.046Z,85.39
2018-02-14T00:03:19.408Z,84.71
2018-02-14T00:05:47.725Z,85.02
2018-02-14T00:08:16.821Z,84.77
2018-02-14T00:10:45.929Z,84.87
2018-02-14T00:13:14.289Z,84.79
2018-02-14T00:15:42.640Z,84.80
2018-02-14T00:18:10.991Z,84.77
2018-02-14T00:20:39.313Z,84.89
2018-02-14T00:23:07.694Z,85.00
2018-02-14T00:25:36.014Z,84.94
2018-02-14T00:28:04.446Z,85.04
2018-02-14T00:30:32.757Z,85.12
2018-02-14T00:33:01.122Z,85.20
2018-02-14T00:35:30.220Z,85.70
2018-02-14T00:37:59.341Z,85.95
2018-02-14T00:40:27.707Z,86.12
2018-02-14T00:42:56.044Z,86.03
2018-02-14T00:45:24.349Z,86.01
2018-02-14T00:47:52.669Z,85.99
2018-02-14T00:50:21.037Z,86.10
2018-02-14T00:52:49.799Z,86.00
2018-02-14T00:55:18.140Z,86.02
2018-02-14T00:57:46.481Z,86.32
2018-02-14T01:00:14.839Z,86.22
2018-02-14T01:02:43.150Z,86.46
2018-02-14T01:05:11.521Z,86.57
2018-02-14T01:07:39.849Z,86.57
2018-02-14T01:10:08.197Z,86.57
2018-02-14T01:12:36.547Z,86.43
2018-02-14T01:15:04.869Z,86.25
2018-02-14T01:17:33.968Z,86.34
2018-02-14T01:20:09.133Z,86.29
2018-02-14T01:22:37.447Z,86.34
2018-02-14T01:25:05.770Z,86.46
2018-02-14T01:27:34.896Z,86.42
2018-02-14T01:30:03.245Z,86.50
2018-02-14T01:32:32.341Z,86.62
2018-02-14T01:35:01.465Z,86.79
2018-02-14T01:37:29.827Z,86.97
2018-02-14T01:39:58.140Z,86.92
2018-02-14T01:42:26.451Z,87.02
2018-02-14T01:44:54.829Z,86.96
2018-02-14T01:47:23.917Z,86.83
2018-02-14T01:49:52.258Z,86.75
2018-02-14T01:52:20.737Z,86.81
2018-02-14T01:54:49.069Z,86.84
2018-02-14T01:57:17.396Z,86.91
2018-02-14T01:59:45.765Z,86.95
2018-02-14T02:02:14.096Z,86.88
2018-02-14T02:04:42.446Z,86.85
2018-02-14T02:07:11.162Z,87.31
2018-02-14T02:09:40.296Z,87.35
2018-02-14T02:12:08.625Z,87.50
2018-02-14T02:14:36.976Z,87.39
2018-02-14T02:17:05.327Z,87.41
2018-02-14T02:19:33.668Z,87.34
2018-02-14T02:22:02.015Z,87.24
2018-02-14T02:24:30.362Z,87.29
2018-02-14T02:26:58.736Z,87.42
2018-02-14T02:29:27.085Z,87.53
2018-02-14T02:31:55.488Z,87.46
2018-02-14T02:34:23.828Z,87.64
2018-02-14T02:36:52.185Z,87.75
2018-02-14T02:39:38.077Z,87.76
2018-02-14T02:42:06.408Z,87.85
2018-02-14T02:44:34.797Z,87.99
2018-02-14T02:47:03.166Z,87.86
2018-02-14T02:49:31.485Z,87.98
2018-02-14T02:51:59.856Z,88.08
2018-02-14T02:54:28.174Z,88.09
2018-02-14T02:56:57.304Z,87.98
2018-02-14T02:59:27.144Z,88.03
2018-02-14T03:01:55.504Z,88.05
2018-02-14T03:04:24.220Z,88.19
2018-02-14T03:06:52.568Z,88.12
2018-02-14T03:09:20.964Z,88.06
2018-02-14T03:11:49.320Z,88.17
2018-02-14T03:14:17.655Z,88.26
2018-02-14T03:16:46.784Z,88.45
2018-02-14T03:19:15.151Z,88.47
2018-02-14T03:21:43.492Z,88.44
2018-02-14T03:24:11.842Z,88.41
2018-02-14T03:26:40.184Z,88.37
2018-02-14T03:29:08.556Z,88.44
2018-02-14T03:31:36.888Z,88.42
2018-02-14T03:34:05.239Z,88.32
2018-02-14T03:36:33.595Z,88.40
2018-02-14T03:39:01.914Z,88.28
2018-02-14T03:41:30.272Z,88.27
2018-02-14T03:43:58.593Z,88.29
2018-02-14T03:46:27.724Z,88.33
2018-02-14T03:48:56.038Z,88.51
2018-02-14T03:51:24.392Z,88.64
2018-02-14T03:53:52.698Z,88.56
2018-02-14T03:56:21.060Z,88.48
2018-02-14T03:58:49.384Z,88.56
2018-02-14T04:01:19.070Z,88.69
2018-02-14T04:03:48.184Z,88.64
2018-02-14T04:06:17.305Z,88.63
2018-02-14T04:08:45.646Z,88.55
2018-02-14T04:11:13.978Z,88.52
2018-02-14T04:13:42.341Z,88.67
2018-02-14T04:16:10.672Z,88.90
2018-02-14T04:18:39.043Z,88.90
2018-02-14T04:21:07.396Z,88.74
2018-02-14T04:23:35.720Z,88.71
2018-02-14T04:26:04.855Z,88.91
2018-02-14T04:28:33.227Z,88.89
2018-02-14T04:31:01.538Z,88.87
2018-02-14T04:33:29.871Z,88.83
2018-02-14T04:35:58.243Z,88.76
2018-02-14T04:38:27.343Z,88.84
2018-02-14T04:40:55.676Z,88.82
2018-02-14T04:43:24.039Z,88.82
2018-02-14T04:45:52.382Z,88.84
2018-02-14T04:48:21.509Z,88.90
2018-02-14T04:50:49.871Z,88.97
2018-02-14T04:53:18.256Z,88.96
2018-02-14T04:55:46.590Z,88.97
2018-02-14T04:58:15.703Z,89.03
2018-02-14T05:00:44.059Z,89.03
2018-02-14T05:03:13.206Z,89.02
2018-02-14T05:05:41.517Z,89.03
2018-02-14T05:08:09.877Z,89.03
2018-02-14T05:10:38.284Z,88.99
2018-02-14T05:13:07.417Z,89.09
2018-02-14T05:15:35.784Z,89.10
2018-02-14T05:18:04.123Z,89.08
2018-02-14T05:20:32.484Z,89.02
2018-02-14T05:23:00.819Z,88.98
2018-02-14T05:25:29.165Z,89.10
2018-02-14T05:27:57.491Z,89.01
2018-02-14T05:30:25.859Z,89.02
2018-02-14T05:32:54.177Z,89.04
2018-02-14T05:35:22.505Z,88.91
2018-02-14T05:37:50.883Z,88.85
2018-02-14T05:40:19.628Z,88.79
2018-02-14T05:42:48.023Z,89.02
2018-02-14T05:45:16.356Z,89.13
2018-02-14T05:47:44.687Z,89.21
2018-02-14T05:50:13.039Z,89.16
2018-02-14T05:52:41.385Z,89.24
2018-02-14T05:55:09.757Z,89.31
2018-02-14T05:57:38.126Z,89.31
2018-02-14T06:00:06.459Z,89.27
2018-02-14T06:02:35.594Z,89.15
2018-02-14T06:05:03.971Z,89.20
2018-02-14T06:07:32.371Z,89.28
2018-02-14T06:10:01.539Z,89.36
2018-02-14T06:12:29.903Z,89.31
2018-02-14T06:14:58.247Z,89.15
2018-02-14T06:17:26.623Z,89.17
2018-02-14T06:19:54.957Z,89.27
2018-02-14T06:22:23.301Z,89.47
2018-02-14T06:24:52.391Z,89.37
2018-02-14T06:27:21.511Z,89.34
2018-02-14T06:29:50.103Z,89.39
2018-02-14T06:32:18.514Z,89.49
2018-02-14T06:34:46.906Z,89.57
2018-02-14T06:37:15.238Z,89.39
2018-02-14T06:39:43.599Z,89.38
2018-02-14T06:42:12.722Z,89.30
2018-02-14T06:44:41.040Z,89.34
2018-02-14T06:47:09.395Z,89.21
2018-02-14T06:49:38.113Z,88.82
2018-02-14T06:52:08.287Z,88.71
2018-02-14T06:54:36.618Z,88.68
2018-02-14T06:57:05.759Z,88.55
2018-02-14T06:59:34.085Z,88.48
2018-02-14T07:02:02.462Z,88.30
2018-02-14T07:04:30.789Z,88.24
2018-02-14T07:06:59.167Z,88.24
2018-02-14T07:09:27.506Z,87.81
2018-02-14T07:11:56.610Z,87.68
2018-02-14T07:14:25.730Z,87.83
2018-02-14T07:16:54.051Z,87.69
2018-02-14T07:19:22.414Z,87.69
2018-02-14T07:21:50.761Z,87.13
2018-02-14T07:24:19.080Z,86.66
2018-02-14T07:26:47.432Z,86.54
2018-02-14T07:29:15.790Z,86.34
2018-02-14T07:31:44.511Z,86.36
2018-02-14T07:34:12.876Z,85.99
2018-02-14T07:36:41.228Z,85.87
2018-02-14T07:39:09.550Z,85.94
2018-02-14T07:41:37.922Z,85.86
2018-02-14T07:44:06.254Z,85.64
2018-02-14T07:46:34.638Z,85.41
2018-02-14T07:49:02.970Z,85.05
2018-02-14T07:51:31.302Z,85.25
2018-02-14T07:53:59.661Z,85.21
2018-02-14T07:56:27.993Z,84.98
2018-02-14T07:58:56.356Z,84.66
2018-02-14T08:01:24.712Z,84.14
2018-02-14T08:03:53.104Z,84.11
2018-02-14T08:06:21.472Z,84.17
2018-02-14T08:08:49.807Z,83.95
2018-02-14T08:11:18.940Z,83.63
2018-02-14T08:13:47.253Z,83.51
2018-02-14T08:16:15.622Z,83.34
2018-02-14T08:18:43.970Z,83.01
2018-02-14T08:21:12.290Z,82.74
2018-02-14T08:23:40.653Z,82.46
2018-02-14T08:26:09.014Z,82.37
2018-02-14T08:28:37.354Z,82.38
2018-02-14T08:31:06.454Z,82.52
2018-02-14T08:33:34.790Z,82.41
2018-02-14T08:36:03.150Z,82.43
2018-02-14T08:38:31.478Z,82.31
2018-02-14T08:41:00.582Z,82.26
2018-02-14T08:43:29.716Z,82.08
2018-02-14T08:45:58.086Z,82.06
2018-02-14T08:48:26.435Z,81.95
2018-02-14T08:50:54.780Z,81.78
2018-02-14T08:53:23.136Z,81.44
2018-02-14T08:55:51.466Z,81.36
2018-02-14T08:58:20.580Z,81.48
2018-02-14T09:00:49.679Z,81.55
2018-02-14T09:03:18.045Z,81.46
2018-02-14T09:05:46.424Z,81.45
2018-02-14T09:08:14.752Z,81.37
2018-02-14T09:10:43.110Z,81.37
2018-02-14T09:13:11.481Z,81.43
2018-02-14T09:15:39.792Z,81.42
2018-02-14T09:18:08.134Z,81.26
2018-02-14T09:20:36.850Z,81.17
2018-02-14T09:23:05.193Z,80.92
2018-02-14T09:25:33.549Z,80.71
2018-02-14T09:28:01.883Z,80.85
2018-02-14T09:30:30.251Z,80.58
2018-02-14T09:32:58.579Z,80.46
2018-02-14T09:35:26.890Z,80.25
2018-02-14T09:37:55.253Z,80.12
2018-02-14T09:40:23.603Z,79.98
2018-02-14T09:42:52.688Z,79.58
2018-02-14T09:45:21.824Z,79.48
2018-02-14T09:47:50.213Z,79.35
2018-02-14T09:50:18.568Z,79.06
2018-02-14T09:52:46.923Z,78.59
2018-02-14T09:55:15.999Z,78.23
2018-02-14T09:57:44.428Z,78.12
2018-02-14T10:00:12.818Z,78.05
2018-02-14T10:02:41.905Z,77.80
2018-02-14T10:05:10.246Z,77.70
2018-02-14T10:07:38.590Z,77.51
2018-02-14T10:10:06.912Z,77.48
2018-02-14T10:12:35.249Z,77.09
2018-02-14T10:15:03.584Z,76.76
2018-02-14T10:17:32.705Z,76.73
2018-02-14T10:20:01.051Z,76.23
2018-02-14T10:22:29.369Z,76.38
2018-02-14T10:24:57.728Z,76.57
2018-02-14T10:27:26.035Z,76.07
2018-02-14T10:29:54.366Z,75.79
2018-02-14T10:32:22.716Z,76.08
2018-02-14T10:34:51.800Z,75.40
2018-02-14T10:37:20.919Z,75.23
2018-02-14T10:39:49.336Z,75.16
2018-02-14T10:42:17.673Z,75.13
2018-02-14T10:44:46.032Z,74.93
2018-02-14T10:47:15.147Z,75.12
2018-02-14T10:49:43.483Z,74.65
2018-02-14T10:52:11.916Z,74.67
2018-02-14T10:54:40.244Z,74.41
2018-02-14T10:57:09.318Z,74.46
2018-02-14T10:59:37.666Z,74.59
2018-02-14T11:02:10.938Z,74.33
2018-02-14T11:04:45.400Z,73.90
2018-02-14T11:07:19.594Z,73.81
2018-02-14T11:09:48.697Z,73.25
2018-02-14T11:12:17.049Z,73.14
2018-02-14T11:14:45.374Z,73.11
2018-02-14T11:17:13.730Z,72.76
2018-02-14T11:19:42.076Z,72.27
2018-02-14T11:22:10.452Z,72.15
2018-02-14T11:24:38.851Z,71.93
2018-02-14T11:27:07.168Z,71.47
2018-02-14T11:29:35.540Z,71.42
2018-02-14T11:32:03.872Z,71.19
2018-02-14T11:34:33.254Z,70.98
2018-02-14T11:37:01.316Z,71.06
2018-02-14T11:39:30.408Z,69.58
2018-02-14T11:41:58.748Z,69.20
2018-02-14T11:44:27.072Z,68.81
2018-02-14T11:46:55.394Z,68.49
2018-02-14T11:49:23.765Z,69.08
2018-02-14T11:51:52.837Z,68.95
2018-02-14T11:54:21.200Z,67.84
2018-02-14T11:56:49.559Z,67.01
2018-02-14T11:59:17.879Z,64.92
2018-02-14T12:01:46.228Z,65.25
2018-02-14T12:04:14.976Z,66.17
2018-02-14T12:06:43.341Z,66.77
2018-02-14T12:09:11.665Z,67.06
2018-02-14T12:11:39.971Z,65.77
2018-02-14T12:14:09.090Z,64.75
2018-02-14T12:16:37.411Z,65.40
2018-02-14T12:19:05.728Z,65.39
2018-02-14T12:21:34.849Z,64.73
2018-02-14T12:24:03.184Z,63.90
2018-02-14T12:26:32.315Z,64.09
2018-02-14T12:29:00.637Z,61.90
2018-02-14T12:31:28.992Z,60.99
2018-02-14T12:33:57.348Z,61.58
2018-02-14T12:36:25.672Z,61.66
2018-02-14T12:38:54.031Z,61.90
2018-02-14T12:41:22.346Z,62.03
2018-02-14T12:43:51.469Z,62.21
2018-02-14T12:46:19.849Z,62.57
2018-02-14T12:48:48.201Z,62.18
2018-02-14T12:51:16.525Z,62.00
2018-02-14T12:53:44.889Z,61.83
2018-02-14T12:56:13.203Z,61.92
2018-02-14T12:58:41.549Z,61.30
2018-02-14T13:01:10.473Z,62.25
2018-02-14T13:03:38.822Z,61.91
2018-02-14T13:06:07.177Z,61.15
2018-02-14T13:08:35.499Z,60.13
2018-02-14T13:11:03.850Z,57.66
2018-02-14T13:13:32.183Z,56.75
2018-02-14T13:16:01.320Z,57.20
2018-02-14T13:18:29.656Z,57.73
2018-02-14T13:20:58.737Z,58.08
2018-02-14T13:23:27.945Z,58.68
2018-02-14T13:25:57.074Z,58.88
2018-02-14T13:28:25.415Z,60.45
2018-02-14T13:30:53.827Z,60.06
2018-02-14T13:33:22.143Z,58.85
2018-02-14T13:35:50.459Z,58.84
2018-02-14T13:38:19.565Z,59.28
2018-02-14T13:40:47.894Z,59.07
2018-02-14T13:43:16.259Z,59.22
2018-02-14T13:45:44.582Z,59.32
2018-02-14T13:48:13.699Z,59.05
2018-02-14T13:50:42.005Z,57.22
2018-02-14T13:53:10.319Z,57.30
2018-02-14T13:55:39.522Z,56.63
2018-02-14T13:58:08.631Z,56.25
2018-02-14T14:00:37.730Z,56.44
2018-02-14T14:03:06.090Z,57.07
2018-02-14T14:05:35.175Z,57.32
2018-02-14T14:08:03.507Z,57.30
2018-02-14T14:10:32.641Z,57.60
2018-02-14T14:13:00.938Z,57.65
2018-02-14T14:15:30.052Z,56.01
2018-02-14T14:17:58.371Z,53.93
2018-02-14T14:20:26.727Z,52.59
2018-02-14T14:22:55.055Z,52.28
2018-02-14T14:25:24.179Z,52.44
2018-02-14T14:27:52.481Z,53.53
2018-02-14T14:30:20.804Z,54.15
2018-02-14T14:32:49.914Z,54.67
2018-02-14T14:35:18.994Z,55.44
2018-02-14T14:37:48.114Z,55.98
2018-02-14T14:40:16.449Z,55.84
2018-02-14T14:42:45.592Z,55.89
2018-02-14T14:45:13.958Z,55.75
2018-02-14T14:47:43.083Z,54.58
2018-02-14T14:50:11.429Z,53.65
2018-02-14T14:52:40.632Z,53.77
2018-02-14T14:55:08.949Z,54.80
2018-02-14T14:57:37.263Z,55.54
2018-02-14T15:00:05.618Z,56.02
2018-02-14T15:02:33.931Z,56.39
2018-02-14T15:05:03.039Z,56.81
2018-02-14T15:07:31.399Z,56.99
2018-02-14T15:09:59.746Z,57.40
2018-02-14T15:12:28.090Z,58.17
2018-02-14T15:14:56.442Z,58.31
2018-02-14T15:17:24.824Z,58.54
2018-02-14T15:19:53.137Z,58.91
2018-02-14T15:22:21.502Z,59.67
2018-02-14T15:24:49.854Z,60.08
2018-02-14T15:27:18.986Z,60.54
2018-02-14T15:29:47.387Z,60.89
2018-02-14T15:32:15.719Z,60.93
2018-02-14T15:34:44.071Z,61.50
2018-02-14T15:37:13.168Z,62.28
2018-02-14T15:39:41.540Z,63.01
2018-02-14T15:42:09.865Z,64.10
2018-02-14T15:44:38.182Z,64.62
2018-02-14T15:47:06.548Z,65.32
2018-02-14T15:49:34.872Z,65.58
2018-02-14T15:52:03.230Z,65.66
2018-02-14T15:54:31.558Z,66.10
2018-02-14T15:56:59.931Z,66.49
2018-02-14T15:59:28.279Z,67.15
2018-02-14T16:01:56.627Z,67.79
2018-02-14T16:04:24.954Z,67.62
2018-02-14T16:06:53.313Z,67.90
2018-02-14T16:09:21.690Z,67.86
2018-02-14T16:11:50.016Z,68.04
2018-02-14T16:14:18.342Z,67.84
2018-02-14T16:16:47.206Z,68.26
2018-02-14T16:19:16.651Z,68.72
2018-02-14T16:21:45.028Z,69.11
2018-02-14T16:24:13.378Z,69.83
2018-02-14T16:26:41.738Z,70.17
2018-02-14T16:29:10.223Z,70.62
2018-02-14T16:31:38.625Z,71.33
2018-02-14T16:34:07.038Z,71.73
2018-02-14T16:36:35.852Z,72.02
2018-02-14T16:39:04.271Z,72.33
2018-02-14T16:41:33.058Z,72.80
2018-02-14T16:44:01.472Z,73.17
2018-02-14T16:46:29.818Z,73.54
2018-02-14T16:48:58.230Z,73.83
2018-02-14T16:51:26.626Z,74.40
2018-02-14T16:53:55.042Z,74.69
2018-02-14T16:56:24.973Z,74.84
2018-02-14T16:58:53.350Z,75.57
2018-02-14T17:01:22.259Z,75.81
2018-02-14T17:03:50.610Z,76.50
2018-02-14T17:06:19.039Z,76.97
2018-02-14T17:08:47.445Z,77.16
2018-02-14T17:11:16.671Z,77.25
2018-02-14T17:13:45.069Z,77.48
2018-02-14T17:16:13.483Z,77.69
2018-02-14T17:18:42.428Z,78.08
2018-02-14T17:21:12.028Z,78.37
2018-02-14T17:23:40.560Z,79.04
2018-02-14T17:26:10.331Z,79.32
2018-02-14T17:28:39.219Z,79.78
2018-02-14T17:31:07.574Z,80.22
2018-02-14T17:33:36.791Z,80.57
2018-02-14T17:36:05.167Z,81.05
2018-02-14T17:38:33.524Z,81.54
2018-02-14T17:41:02.648Z,81.82
2018-02-14T17:43:31.480Z,82.05
2018-02-14T17:45:59.873Z,82.20
2018-02-14T17:48:28.570Z,82.50
2018-02-14T17:50:57.837Z,82.56
2018-02-14T17:53:35.241Z,83.16
2018-02-14T17:56:04.889Z,83.33
2018-02-14T17:58:33.414Z,83.64
2018-02-14T18:01:03.013Z,83.94
2018-02-14T18:03:31.409Z,84.05
2018-02-14T18:06:00.551Z,84.46
2018-02-14T18:08:29.319Z,84.60
2018-02-14T18:10:58.449Z,85.17
2018-02-14T18:13:26.795Z,85.19
2018-02-14T18:15:55.918Z,85.26
2018-02-14T18:18:24.245Z,85.68
2018-02-14T18:20:52.655Z,85.88
2018-02-14T18:23:21.765Z,85.97
2018-02-14T18:25:50.103Z,86.05
2018-02-14T18:28:18.488Z,86.30
2018-02-14T18:30:46.821Z,86.41
2018-02-14T18:33:15.190Z,86.53
2018-02-14T18:35:43.925Z,86.68
2018-02-14T18:38:12.381Z,86.79
2018-02-14T18:40:40.727Z,86.81
2018-02-14T18:43:09.858Z,86.84
2018-02-14T18:45:38.213Z,86.89
2018-02-14T18:48:06.539Z,86.79
2018-02-14T18:50:34.903Z,87.12
2018-02-14T18:53:03.250Z,87.39
2018-02-14T18:55:31.852Z,87.60
2018-02-14T18:58:00.190Z,87.68
2018-02-14T19:00:28.561Z,87.88
2018-02-14T19:02:56.992Z,87.83
2018-02-14T19:05:25.369Z,87.70
2018-02-14T19:07:53.739Z,87.78
2018-02-14T19:10:22.126Z,87.73
2018-02-14T19:12:50.496Z,87.87
2018-02-14T19:15:18.840Z,87.77
2018-02-14T19:17:47.281Z,87.92
2018-02-14T19:20:15.633Z,87.95
2018-02-14T19:22:43.992Z,88.14
2018-02-14T19:25:12.362Z,88.12
2018-02-14T19:27:40.809Z,88.37
2018-02-14T19:30:10.018Z,88.31
2018-02-14T19:32:38.424Z,88.30
2018-02-14T19:35:07.554Z,88.24
2018-02-14T19:37:35.894Z,88.31
2018-02-14T19:40:04.679Z,88.07
2018-02-14T19:42:33.052Z,87.97
2018-02-14T19:45:02.186Z,87.23
2018-02-14T19:47:30.511Z,87.21
2018-02-14T19:49:58.896Z,87.05
2018-02-14T19:52:27.236Z,86.85
2018-02-14T19:54:56.706Z,86.50
2018-02-14T19:57:25.080Z,86.31
2018-02-14T19:59:53.481Z,86.45
2018-02-14T20:02:22.210Z,86.50
2018-02-14T20:04:50.592Z,86.32
2018-02-14T20:07:19.606Z,86.03
2018-02-14T20:09:47.926Z,85.88
2018-02-14T20:12:17.074Z,86.00
2018-02-14T20:14:45.512Z,86.06
2018-02-14T20:17:14.620Z,85.61
2018-02-14T20:19:43.736Z,85.81
2018-02-14T20:22:12.168Z,86.04
2018-02-14T20:24:40.514Z,85.84
2018-02-14T20:27:08.919Z,85.55
2018-02-14T20:29:38.056Z,85.26
2018-02-14T20:32:06.387Z,85.27
2018-02-14T20:34:34.760Z,84.93
2018-02-14T20:37:03.110Z,84.92
2018-02-14T20:39:31.957Z,84.74
2018-02-14T20:42:01.047Z,84.87
2018-02-14T20:44:29.928Z,84.84
2018-02-14T20:46:59.038Z,84.47
2018-02-14T20:49:27.674Z,84.33
2018-02-14T20:51:56.564Z,84.11
2018-02-14T20:54:25.159Z,83.86
2018-02-14T20:56:54.479Z,83.65
2018-02-14T20:59:23.582Z,83.74
2018-02-14T21:01:51.928Z,84.04
2018-02-14T21:04:21.967Z,84.32
2018-02-14T21:06:50.824Z,84.80
2018-02-14T21:09:20.016Z,85.21
2018-02-14T21:11:48.376Z,84.95
2018-02-14T21:14:16.708Z,84.46
2018-02-14T21:16:45.164Z,84.11
2018-02-14T21:19:13.486Z,84.79
2018-02-14T21:21:43.188Z,84.81
2018-02-14T21:24:11.550Z,84.70
2018-02-14T21:26:39.933Z,84.22
2018-02-14T21:29:08.311Z,83.97
2018-02-14T21:31:36.841Z,84.03
2018-02-14T21:34:06.503Z,84.30
2018-02-14T21:36:34.951Z,84.68
2018-02-14T21:39:03.289Z,85.14
2018-02-14T21:41:31.673Z,85.25
2018-02-14T21:44:00.023Z,85.58
2018-02-14T21:46:28.783Z,85.66
2018-02-14T21:48:57.520Z,85.25
2018-02-14T21:51:27.246Z,85.17
2018-02-14T21:53:55.695Z,85.33
2018-02-14T21:56:25.749Z,84.85
2018-02-14T21:58:54.107Z,84.49
2018-02-14T22:01:22.479Z,84.17
2018-02-14T22:03:51.598Z,84.20
2018-02-14T22:06:21.121Z,84.17
2018-02-14T22:08:49.453Z,83.88
2018-02-14T22:11:18.544Z,83.80
2018-02-14T22:13:47.767Z,83.62
2018-02-14T22:16:16.119Z,83.59
2018-02-14T22:18:44.435Z,83.16
2018-02-14T22:21:12.817Z,82.76
2018-02-14T22:23:41.599Z,82.59
2018-02-14T22:26:10.681Z,82.96
2018-02-14T22:28:39.058Z,82.99
2018-02-14T22:31:07.392Z,83.12
2018-02-14T22:33:36.648Z,83.24
2018-02-14T22:36:04.966Z,83.82
2018-02-14T22:38:33.405Z,84.19
2018-02-14T22:41:01.721Z,84.20
2018-02-14T22:43:30.112Z,83.88
2018-02-14T22:45:58.461Z,83.60
2018-02-14T22:48:26.798Z,83.61
2018-02-14T22:50:55.160Z,83.96
2018-02-14T22:53:24.331Z,84.43
2018-02-14T22:55:52.648Z,84.76
2018-02-14T22:58:21.026Z,84.79
2018-02-14T23:00:49.411Z,84.96
2018-02-14T23:03:17.748Z,84.85
2018-02-14T23:05:46.136Z,84.48
2018-02-14T23:08:14.454Z,84.16
2018-02-14T23:10:42.800Z,83.82
2018-02-14T23:13:11.933Z,83.72
2018-02-14T23:15:40.287Z,83.40
2018-02-14T23:18:08.652Z,83.51
2018-02-14T23:20:37.758Z,83.33
2018-02-14T23:23:06.891Z,83.42
2018-02-14T23:25:35.223Z,83.42
2018-02-14T23:28:04.366Z,83.26
2018-02-14T23:30:32.686Z,83.12
2018-02-14T23:33:01.786Z,83.40
2018-02-14T23:35:30.916Z,84.46
2018-02-14T23:37:59.290Z,84.23
2018-02-14T23:40:27.622Z,84.11
2018-02-14T23:42:55.962Z,84.43
2018-02-14T23:45:24.326Z,85.17
2018-02-14T23:47:52.645Z,84.89
2018-02-14T23:50:21.778Z,85.06
2018-02-14T23:52:50.362Z,85.14
2018-02-14T23:55:19.606Z,85.48
2018-02-14T23:57:47.948Z,85.73
